createdAt,value
2022-11-28T00:00:10.114Z,2.20
2022-11-28T00:03:36.111Z,2.03
2022-11-28T00:06:45.315Z,2.33
2022-11-28T00:09:50.618Z,2.13
2022-11-28T00:12:53.813Z,1.55
2022-11-28T00:15:58.246Z,1.40
2022-11-28T00:19:03.458Z,2.17
2022-11-28T00:22:07.050Z,1.90
2022-11-28T00:25:11.802Z,2.03
2022-11-28T00:28:15.443Z,1.52
2022-11-28T00:31:21.466Z,1.97
2022-11-28T00:34:25.404Z,1.83
2022-11-28T00:37:28.851Z,1.80
2022-11-28T00:40:33.906Z,2.25
2022-11-28T00:43:37.482Z,2.50
2022-11-28T00:46:41.436Z,2.13
2022-11-28T00:49:44.610Z,2.08
2022-11-28T00:52:48.209Z,2.22
2022-11-28T00:55:52.936Z,1.63
2022-11-28T00:58:57.236Z,1.80
2022-11-28T01:02:00.658Z,2.63
2022-11-28T01:05:04.715Z,2.33
2022-11-28T01:08:08.021Z,1.85
2022-11-28T01:11:14.311Z,2.17
2022-11-28T01:14:20.211Z,2.10
2022-11-28T01:17:23.815Z,2.37
2022-11-28T01:20:27.084Z,2.00
2022-11-28T01:23:30.812Z,1.67
2022-11-28T01:26:35.846Z,1.73
2022-11-28T01:29:39.681Z,2.63
2022-11-28T01:32:43.446Z,1.87
2022-11-28T01:35:56.291Z,1.75
2022-11-28T01:38:59.482Z,1.95
2022-11-28T01:42:05.017Z,1.63
2022-11-28T01:45:18.394Z,1.73
2022-11-28T01:48:27.568Z,2.40
2022-11-28T01:51:32.240Z,2.22
2022-11-28T01:54:38.966Z,1.73
2022-11-28T01:57:44.555Z,1.40
2022-11-28T02:00:49.889Z,1.90
2022-11-28T02:03:55.295Z,1.93
2022-11-28T02:06:58.888Z,2.05
2022-11-28T02:10:04.692Z,1.77
2022-11-28T02:13:33.914Z,2.15
2022-11-28T02:16:58.295Z,1.65
2022-11-28T02:21:03.013Z,1.30
2022-11-28T02:24:47.227Z,2.47
2022-11-28T02:28:31.114Z,2.03
2022-11-28T02:32:28.757Z,1.65
2022-11-28T02:35:45.721Z,2.05
2022-11-28T02:39:15.451Z,1.30
2022-11-28T02:42:25.936Z,1.50
2022-11-28T02:45:42.332Z,2.13
2022-11-28T02:48:53.986Z,1.30
2022-11-28T02:52:04.517Z,1.95
2022-11-28T02:55:10.236Z,1.90
2022-11-28T02:58:14.489Z,1.88
2022-11-28T03:01:24.429Z,2.08
2022-11-28T03:04:43.135Z,1.67
2022-11-28T03:08:04.680Z,1.67
2022-11-28T03:11:21.132Z,1.77
2022-11-28T03:14:42.467Z,2.05
2022-11-28T03:18:00.776Z,1.25
2022-11-28T03:21:16.574Z,1.90
2022-11-28T03:24:31.111Z,1.55
2022-11-28T03:27:42.993Z,1.23
2022-11-28T03:30:51.883Z,1.67
2022-11-28T03:34:00.717Z,1.40
2022-11-28T03:37:10.168Z,1.60
2022-11-28T03:40:23.713Z,1.58
2022-11-28T03:43:35.803Z,1.40
2022-11-28T03:46:48.502Z,1.52
2022-11-28T03:49:56.082Z,1.90
2022-11-28T03:53:06.845Z,1.63
2022-11-28T03:56:18.752Z,1.25
2022-11-28T03:59:32.366Z,1.53
2022-11-28T04:02:46.564Z,1.55
2022-11-28T04:06:03.755Z,1.58
2022-11-28T04:09:15.826Z,1.85
2022-11-28T04:12:33.353Z,1.65
2022-11-28T04:15:46.365Z,1.47
2022-11-28T04:19:00.827Z,1.35
2022-11-28T04:22:11.801Z,1.88
2022-11-28T04:25:21.427Z,1.52
2022-11-28T04:28:37.045Z,1.42
2022-11-28T04:31:46.418Z,1.50
2022-11-28T04:34:58.096Z,1.73
2022-11-28T04:38:06.150Z,1.40
2022-11-28T04:41:16.032Z,2.05
2022-11-28T04:44:29.604Z,1.70
2022-11-28T04:47:33.233Z,2.03
2022-11-28T04:50:47.639Z,1.65
2022-11-28T04:54:01.219Z,2.15
2022-11-28T04:57:16.007Z,1.40
2022-11-28T05:00:22.811Z,1.67
2022-11-28T05:03:30.192Z,1.30
2022-11-28T05:06:36.113Z,1.70
2022-11-28T05:09:40.537Z,1.45
2022-11-28T05:12:44.081Z,1.83
2022-11-28T05:15:49.147Z,1.63
2022-11-28T05:18:52.657Z,1.30
2022-11-28T05:21:56.425Z,1.67
2022-11-28T05:24:59.576Z,2.10
2022-11-28T05:28:03.283Z,1.25
2022-11-28T05:31:07.926Z,1.40
2022-11-28T05:34:11.696Z,1.50
2022-11-28T05:37:15.267Z,1.30
2022-11-28T05:40:19.028Z,1.60
2022-11-28T05:43:22.501Z,1.83
2022-11-28T05:46:29.490Z,1.38
2022-11-28T05:49:32.875Z,1.37
2022-11-28T05:52:36.388Z,1.38
2022-11-28T05:55:41.439Z,1.58
2022-11-28T05:58:46.440Z,1.38
2022-11-28T06:01:51.235Z,1.27
2022-11-28T06:04:55.066Z,1.40
2022-11-28T06:07:58.443Z,1.73
2022-11-28T06:11:02.062Z,1.20
2022-11-28T06:14:05.863Z,1.07
2022-11-28T06:17:11.059Z,1.55
2022-11-28T06:20:14.775Z,1.10
2022-11-28T06:23:18.270Z,1.42
2022-11-28T06:26:24.569Z,1.77
2022-11-28T06:29:28.224Z,1.20
2022-11-28T06:32:32.818Z,1.10
2022-11-28T06:35:36.473Z,2.20
2022-11-28T06:38:40.116Z,2.22
2022-11-28T06:41:44.869Z,1.20
2022-11-28T06:44:48.151Z,1.60
2022-11-28T06:47:53.208Z,1.67
2022-11-28T06:51:04.092Z,1.27
2022-11-28T06:54:08.555Z,1.52
2022-11-28T06:57:12.643Z,1.35
2022-11-28T07:00:17.858Z,2.22
2022-11-28T07:03:22.682Z,1.20
2022-11-28T07:06:28.206Z,2.10
2022-11-28T07:09:31.881Z,1.17
2022-11-28T07:12:35.543Z,1.73
2022-11-28T07:15:38.891Z,1.83
2022-11-28T07:18:44.305Z,1.52
2022-11-28T07:21:47.410Z,1.30
2022-11-28T07:24:51.200Z,1.40
2022-11-28T07:27:54.512Z,1.15
2022-11-28T07:31:08.395Z,1.30
2022-11-28T07:34:13.840Z,2.15
2022-11-28T07:37:17.384Z,1.80
2022-11-28T07:40:22.733Z,2.20
2022-11-28T07:43:26.234Z,2.28
2022-11-28T07:46:33.068Z,1.90
2022-11-28T07:49:37.971Z,2.10
2022-11-28T07:52:41.476Z,1.93
2022-11-28T07:55:45.098Z,2.67
2022-11-28T07:58:49.263Z,2.13
2022-11-28T08:01:53.961Z,2.03
2022-11-28T08:04:59.761Z,1.48
2022-11-28T08:08:03.365Z,1.73
2022-11-28T08:11:09.836Z,1.23
2022-11-28T08:14:14.257Z,1.60
2022-11-28T08:17:17.639Z,2.20
2022-11-28T08:20:22.573Z,2.15
2022-11-28T08:23:26.090Z,1.87
2022-11-28T08:26:32.258Z,1.35
2022-11-28T08:29:35.648Z,1.77
2022-11-28T08:32:39.709Z,2.15
2022-11-28T08:35:44.581Z,1.95
2022-11-28T08:39:03.557Z,1.90
2022-11-28T08:42:13.316Z,1.70
2022-11-28T08:45:16.953Z,1.73
2022-11-28T08:48:20.386Z,2.35
2022-11-28T08:51:25.491Z,1.95
2022-11-28T08:54:29.037Z,1.33
2022-11-28T08:57:32.621Z,1.73
2022-11-28T09:00:36.005Z,2.30
2022-11-28T09:03:39.592Z,1.65
2022-11-28T09:06:44.133Z,1.50
2022-11-28T09:09:48.296Z,1.97
2022-11-28T09:12:51.979Z,1.90
2022-11-28T09:15:55.649Z,2.30
2022-11-28T09:18:59.474Z,1.90
2022-11-28T09:22:04.662Z,1.50
2022-11-28T09:25:09.778Z,2.43
2022-11-28T09:28:13.508Z,1.88
2022-11-28T09:31:19.542Z,1.85
2022-11-28T09:34:23.159Z,2.38
2022-11-28T09:37:28.857Z,4.25
2022-11-28T09:40:38.990Z,6.47
2022-11-28T09:43:50.749Z,6.25
2022-11-28T09:47:01.956Z,6.13
2022-11-28T09:50:15.366Z,5.68
2022-11-28T09:53:31.763Z,5.70
2022-11-28T09:56:35.324Z,6.43
2022-11-28T09:59:38.863Z,5.80
2022-11-28T10:03:03.520Z,4.60
2022-11-28T10:06:22.655Z,5.65
2022-11-28T10:09:45.556Z,4.25
2022-11-28T10:13:03.983Z,4.10
2022-11-28T10:16:19.050Z,3.83
2022-11-28T10:23:03.707Z,3.95
2022-11-28T10:26:17.772Z,4.80
2022-11-28T10:29:30.694Z,3.20
2022-11-28T10:32:39.930Z,3.97
2022-11-28T10:35:49.602Z,3.78
2022-11-28T10:38:53.350Z,4.35
2022-11-28T10:42:13.966Z,4.25
2022-11-28T10:45:31.233Z,3.77
2022-11-28T10:48:50.967Z,5.00
2022-11-28T10:52:08.910Z,3.63
2022-11-28T10:55:33.818Z,4.55
2022-11-28T10:58:50.043Z,3.35
2022-11-28T11:01:55.092Z,3.73
2022-11-28T11:04:58.918Z,3.83
2022-11-28T11:08:12.328Z,4.07
2022-11-28T11:11:27.751Z,3.95
2022-11-28T11:14:39.824Z,3.05
2022-11-28T11:17:43.588Z,3.40
2022-11-28T11:20:46.793Z,2.78
2022-11-28T11:24:11.962Z,2.92
2022-11-28T11:27:22.345Z,3.20
2022-11-28T11:30:32.413Z,3.90
2022-11-28T11:33:38.807Z,2.80
2022-11-28T11:36:42.618Z,3.60
2022-11-28T11:39:51.674Z,2.33
2022-11-28T11:42:58.337Z,2.75
2022-11-28T11:46:10.881Z,3.45
2022-11-28T11:49:30.611Z,2.33
2022-11-28T11:52:33.870Z,2.50
2022-11-28T11:55:49.006Z,2.28
2022-11-28T11:58:56.901Z,3.15
2022-11-28T12:02:07.620Z,2.88
2022-11-28T12:05:15.186Z,3.60
2022-11-28T12:08:34.041Z,3.33
2022-11-28T12:11:46.923Z,2.40
2022-11-28T12:14:52.759Z,2.90
2022-11-28T12:18:21.830Z,2.67
2022-11-28T12:21:38.368Z,2.77
2022-11-28T12:25:01.510Z,2.85
2022-11-28T12:28:27.779Z,2.33
2022-11-28T12:31:49.458Z,2.40
2022-11-28T12:35:18.011Z,2.50
2022-11-28T12:38:41.308Z,2.27
2022-11-28T12:42:17.332Z,2.67
2022-11-28T12:45:38.685Z,2.30
2022-11-28T12:49:04.322Z,2.67
2022-11-28T12:52:32.805Z,2.17
2022-11-28T12:55:50.250Z,2.77
2022-11-28T12:59:06.681Z,2.25
2022-11-28T13:02:28.931Z,2.55
2022-11-28T13:05:49.508Z,2.30
2022-11-28T13:09:17.997Z,2.08
2022-11-28T13:12:30.339Z,2.47
2022-11-28T13:15:55.466Z,2.83
2022-11-28T13:19:11.378Z,2.65
2022-11-28T13:22:23.582Z,2.55
2022-11-28T13:25:41.306Z,2.65
2022-11-28T13:28:56.175Z,2.50
2022-11-28T13:32:13.755Z,2.45
2022-11-28T13:35:22.167Z,2.28
2022-11-28T13:38:51.992Z,2.28
2022-11-28T13:45:46.938Z,2.20
2022-11-28T13:49:15.348Z,1.60
2022-11-28T13:52:45.261Z,1.88
2022-11-28T13:55:51.103Z,1.77
2022-11-28T13:59:00.741Z,1.52
2022-11-28T14:02:22.108Z,1.57
2022-11-28T14:05:37.734Z,2.40
2022-11-28T14:08:45.868Z,2.10
2022-11-28T14:12:12.711Z,1.73
2022-11-28T14:15:33.340Z,1.65
2022-11-28T14:19:02.587Z,2.30
2022-11-28T14:22:28.825Z,2.00
2022-11-28T14:25:40.477Z,1.92
2022-11-28T14:28:46.544Z,1.80
2022-11-28T14:32:28.058Z,2.75
2022-11-28T14:35:58.494Z,1.63
2022-11-28T14:39:33.936Z,1.95
2022-11-28T14:43:00.200Z,1.75
2022-11-28T14:46:34.829Z,1.73
2022-11-28T14:49:40.544Z,1.85
2022-11-28T14:52:47.920Z,1.47
2022-11-28T14:55:51.589Z,2.15
2022-11-28T14:59:01.958Z,1.33
2022-11-28T15:02:47.738Z,1.90
2022-11-28T15:05:59.185Z,1.67
2022-11-28T15:09:12.656Z,2.37
2022-11-28T15:12:27.774Z,2.13
2022-11-28T15:15:33.492Z,1.88
2022-11-28T15:18:40.793Z,1.40
2022-11-28T15:21:48.598Z,2.40
2022-11-28T15:24:53.575Z,1.90
2022-11-28T15:27:57.419Z,2.03
2022-11-28T15:31:04.891Z,2.30
2022-11-28T15:34:11.373Z,1.50
2022-11-28T15:37:20.492Z,1.98
2022-11-28T15:40:30.885Z,2.10
2022-11-28T15:43:34.952Z,2.20
2022-11-28T15:46:38.826Z,1.90
2022-11-28T15:49:43.078Z,2.28
2022-11-28T15:52:58.211Z,2.40
2022-11-28T15:56:14.573Z,1.40
2022-11-28T15:59:18.177Z,1.73
2022-11-28T16:02:28.495Z,1.58
2022-11-28T16:05:32.738Z,1.60
2022-11-28T16:08:41.861Z,2.38
2022-11-28T16:11:49.489Z,1.53
2022-11-28T16:14:56.427Z,2.13
2022-11-28T16:18:00.298Z,1.45
2022-11-28T16:21:04.315Z,1.92
2022-11-28T16:24:25.297Z,1.63
2022-11-28T16:27:36.215Z,3.93
2022-11-28T16:30:45.566Z,2.60
2022-11-28T16:33:50.314Z,2.45
2022-11-28T16:36:54.613Z,2.42
2022-11-28T16:40:17.122Z,2.50
2022-11-28T16:43:30.885Z,2.17
2022-11-28T16:46:39.321Z,2.22
2022-11-28T16:50:02.216Z,2.50
2022-11-28T16:53:06.656Z,2.65
2022-11-28T16:56:26.161Z,2.40
2022-11-28T16:59:30.107Z,2.27
2022-11-28T17:02:33.679Z,2.80
2022-11-28T17:05:37.497Z,2.40
2022-11-28T17:08:41.135Z,1.77
2022-11-28T17:11:52.605Z,2.25
2022-11-28T17:14:58.657Z,1.67
2022-11-28T17:18:02.351Z,1.88
2022-11-28T17:21:07.172Z,2.42
2022-11-28T17:24:19.101Z,2.08
2022-11-28T17:27:24.196Z,2.35
2022-11-28T17:30:27.437Z,2.27
2022-11-28T17:33:31.254Z,2.30
2022-11-28T17:36:34.988Z,1.38
2022-11-28T17:39:38.860Z,1.90
2022-11-28T17:42:43.928Z,1.95
2022-11-28T17:45:50.670Z,2.00
2022-11-28T17:48:54.711Z,2.80
2022-11-28T17:51:58.897Z,2.17
2022-11-28T17:55:07.090Z,1.20
2022-11-28T17:58:19.566Z,1.75
2022-11-28T18:01:29.419Z,3.20
2022-11-28T18:04:37.428Z,1.77
2022-11-28T18:07:42.195Z,2.58
2022-11-28T18:10:48.192Z,1.83
2022-11-28T18:13:54.591Z,1.85
2022-11-28T18:16:58.328Z,2.20
2022-11-28T18:20:01.665Z,2.72
2022-11-28T18:23:05.380Z,1.63
2022-11-28T18:26:10.221Z,2.60
2022-11-28T18:29:15.160Z,2.20
2022-11-28T18:32:18.796Z,2.43
2022-11-28T18:35:22.504Z,2.08
2022-11-28T18:38:26.056Z,2.42
2022-11-28T18:41:31.057Z,2.85
2022-11-28T18:44:36.103Z,1.58
2022-11-28T18:47:40.015Z,1.80
2022-11-28T18:50:44.072Z,2.35
2022-11-28T18:53:49.515Z,1.75
2022-11-28T18:56:54.644Z,1.83
2022-11-28T19:00:01.473Z,1.85
2022-11-28T19:03:06.127Z,2.37
2022-11-28T19:06:13.059Z,2.10
2022-11-28T19:09:18.636Z,1.70
2022-11-28T19:12:22.597Z,1.60
2022-11-28T19:15:27.403Z,2.05
2022-11-28T19:18:30.943Z,1.90
2022-11-28T19:21:37.301Z,2.70
2022-11-28T19:24:40.747Z,2.70
2022-11-28T19:27:44.432Z,1.85
2022-11-28T19:30:49.551Z,1.35
2022-11-28T19:34:00.936Z,2.00
2022-11-28T19:37:07.297Z,1.85
2022-11-28T19:40:11.600Z,2.22
2022-11-28T19:43:15.173Z,1.98
2022-11-28T19:46:20.613Z,2.88
2022-11-28T19:49:25.934Z,2.13
2022-11-28T19:52:29.548Z,1.85
2022-11-28T19:55:33.078Z,2.05
2022-11-28T19:58:37.736Z,3.00
2022-11-28T20:01:42.847Z,1.92
2022-11-28T20:04:47.335Z,1.97
2022-11-28T20:07:54.382Z,2.35
2022-11-28T20:11:12.451Z,2.08
2022-11-28T20:14:19.416Z,2.58
2022-11-28T20:17:24.293Z,1.77
2022-11-28T20:20:27.772Z,2.03
2022-11-28T20:23:31.475Z,2.42
2022-11-28T20:26:38.706Z,1.83
2022-11-28T20:29:43.168Z,2.42
2022-11-28T20:32:48.313Z,2.15
2022-11-28T20:35:58.394Z,1.77
2022-11-28T20:39:04.819Z,2.20
2022-11-28T20:42:08.407Z,2.03
2022-11-28T20:45:12.654Z,2.28
2022-11-28T20:48:17.488Z,1.83
2022-11-28T20:51:24.800Z,1.87
2022-11-28T20:54:28.511Z,2.70
2022-11-28T20:57:32.029Z,2.53
2022-11-28T21:00:35.335Z,1.85
2022-11-28T21:03:40.197Z,1.63
2022-11-28T21:06:44.906Z,1.87
2022-11-28T21:09:48.432Z,2.65
2022-11-28T21:12:52.164Z,2.65
2022-11-28T21:15:55.837Z,2.22
2022-11-28T21:19:06.187Z,2.05
2022-11-28T21:22:09.629Z,1.87
2022-11-28T21:25:13.144Z,1.60
2022-11-28T21:28:16.617Z,1.90
2022-11-28T21:31:23.591Z,2.55
2022-11-28T21:34:28.432Z,1.88
2022-11-28T21:37:31.926Z,2.87
2022-11-28T21:40:35.664Z,2.60
2022-11-28T21:43:39.165Z,2.08
2022-11-28T21:46:42.963Z,2.40
2022-11-28T21:49:47.897Z,1.63
2022-11-28T21:52:51.679Z,2.07
2022-11-28T21:55:56.474Z,2.97
2022-11-28T21:59:00.006Z,2.65
2022-11-28T22:02:08.578Z,2.50
2022-11-28T22:05:17.167Z,1.88
2022-11-28T22:08:21.408Z,1.90
2022-11-28T22:11:25.580Z,1.50
2022-11-28T22:14:36.400Z,1.70
2022-11-28T22:17:40.648Z,2.65
2022-11-28T22:20:47.784Z,2.10
2022-11-28T22:23:55.177Z,2.87
2022-11-28T22:26:59.799Z,2.58
2022-11-28T22:30:05.054Z,1.95
2022-11-28T22:33:09.223Z,2.75
2022-11-28T22:36:16.732Z,2.17
2022-11-28T22:39:20.054Z,2.03
2022-11-28T22:42:24.188Z,1.80
2022-11-28T22:45:27.710Z,2.00
2022-11-28T22:48:33.363Z,2.17
2022-11-28T22:51:38.705Z,2.15
2022-11-28T22:54:42.965Z,2.93
2022-11-28T22:57:46.735Z,2.70
2022-11-28T23:00:50.185Z,2.22
2022-11-28T23:03:55.615Z,2.65
2022-11-28T23:07:01.310Z,2.63
2022-11-28T23:10:05.308Z,2.07
2022-11-28T23:13:10.266Z,1.85
2022-11-28T23:16:17.344Z,2.83
2022-11-28T23:19:21.154Z,2.00
2022-11-28T23:22:25.902Z,2.78
2022-11-28T23:25:29.488Z,2.20
2022-11-28T23:28:33.596Z,1.80
2022-11-28T23:31:40.674Z,2.35
2022-11-28T23:34:44.454Z,1.73
2022-11-28T23:37:49.563Z,2.30
2022-11-28T23:40:56.499Z,2.20
2022-11-28T23:44:00.424Z,2.97
2022-11-28T23:47:04.054Z,2.67
2022-11-28T23:50:09.659Z,1.80
2022-11-28T23:53:14.902Z,2.20
2022-11-28T23:56:22.112Z,2.30
2022-11-28T23:59:25.951Z,2.42
